sensor_id;sensor_type;location;lat;lon;timestamp;temperature;humidity
2855;DHT22;1435;49.472;10.940;2023-04-03T00:00:00;6.80;99.90
2855;DHT22;1435;49.472;10.940;2023-04-03T00:05:06;6.70;99.90
2855;DHT22;1435;49.472;10.940;2023-04-03T00:10:08;6.70;99.90
2855;DHT22;1435;49.472;10.940;2023-04-03T00:15:11;6.70;99.90
2855;DHT22;1435;49.472;10.940;2023-04-03T00:20:14;6.60;99.90
2855;DHT22;1435;49.472;10.940;2023-04-03T00:25:16;6.70;99.90
2855;DHT22;1435;49.472;10.940;2023-04-03T00:30:20;6.60;99.90
2855;DHT22;1435;49.472;10.940;2023-04-03T00:35:24;6.60;99.90
2855;DHT22;1435;49.472;10.940;2023-04-03T00:40:27;6.60;99.90
2855;DHT22;1435;49.472;10.940;2023-04-03T00:45:32;6.50;99.90
2855;DHT22;1435;49.472;10.940;2023-04-03T00:50:37;6.50;99.90
2855;DHT22;1435;49.472;10.940;2023-04-03T00:55:42;6.50;99.90
2855;DHT22;1435;49.472;10.940;2023-04-03T01:00:48;6.50;99.90
2855;DHT22;1435;49.472;10.940;2023-04-03T01:05:55;6.50;99.90
2855;DHT22;1435;49.472;10.940;2023-04-03T01:10:57;6.50;99.90
2855;DHT22;1435;49.472;10.940;2023-04-03T01:16:01;6.50;99.90
2855;DHT22;1435;49.472;10.940;2023-04-03T01:26:52;6.40;99.90
2855;DHT22;1435;49.472;10.940;2023-04-03T01:31:56;6.40;99.90
2855;DHT22;1435;49.472;10.940;2023-04-03T01:36:59;6.30;99.90
2855;DHT22;1435;49.472;10.940;2023-04-03T01:42:00;6.30;99.90
2855;DHT22;1435;49.472;10.940;2023-04-03T01:47:05;6.30;99.90
2855;DHT22;1435;49.472;10.940;2023-04-03T01:52:07;6.30;99.90
2855;DHT22;1435;49.472;10.940;2023-04-03T01:57:09;6.30;99.90
2855;DHT22;1435;49.472;10.940;2023-04-03T02:02:12;6.30;99.90
2855;DHT22;1435;49.472;10.940;2023-04-03T02:07:15;6.20;99.90
2855;DHT22;1435;49.472;10.940;2023-04-03T02:12:16;6.20;99.90
2855;DHT22;1435;49.472;10.940;2023-04-03T02:17:19;6.20;99.90
2855;DHT22;1435;49.472;10.940;2023-04-03T02:22:21;6.10;99.90
2855;DHT22;1435;49.472;10.940;2023-04-03T02:27:23;6.10;99.90
2855;DHT22;1435;49.472;10.940;2023-04-03T02:32:26;6.00;99.90
2855;DHT22;1435;49.472;10.940;2023-04-03T02:37:28;6.00;99.90
2855;DHT22;1435;49.472;10.940;2023-04-03T02:42:30;6.00;99.90
2855;DHT22;1435;49.472;10.940;2023-04-03T02:47:33;5.80;99.90
2855;DHT22;1435;49.472;10.940;2023-04-03T02:52:35;5.80;99.90
2855;DHT22;1435;49.472;10.940;2023-04-03T02:57:37;5.80;99.90
2855;DHT22;1435;49.472;10.940;2023-04-03T03:02:40;5.80;99.90
2855;DHT22;1435;49.472;10.940;2023-04-03T03:07:42;5.70;99.90
2855;DHT22;1435;49.472;10.940;2023-04-03T03:12:43;5.70;99.90
2855;DHT22;1435;49.472;10.940;2023-04-03T03:17:47;5.60;99.90
2855;DHT22;1435;49.472;10.940;2023-04-03T03:22:48;5.60;99.90
2855;DHT22;1435;49.472;10.940;2023-04-03T03:27:50;5.60;99.90
2855;DHT22;1435;49.472;10.940;2023-04-03T03:32:53;5.60;99.90
2855;DHT22;1435;49.472;10.940;2023-04-03T03:37:55;5.50;99.90
2855;DHT22;1435;49.472;10.940;2023-04-03T03:42:56;5.50;99.90
2855;DHT22;1435;49.472;10.940;2023-04-03T03:48:01;5.50;99.90
2855;DHT22;1435;49.472;10.940;2023-04-03T03:53:02;5.40;99.90
2855;DHT22;1435;49.472;10.940;2023-04-03T03:58:04;5.40;99.90
2855;DHT22;1435;49.472;10.940;2023-04-03T04:03:07;5.40;99.90
2855;DHT22;1435;49.472;10.940;2023-04-03T04:08:09;5.40;99.90
2855;DHT22;1435;49.472;10.940;2023-04-03T04:13:11;5.40;99.90
2855;DHT22;1435;49.472;10.940;2023-04-03T04:18:14;5.40;99.90
2855;DHT22;1435;49.472;10.940;2023-04-03T04:23:16;5.40;99.90
2855;DHT22;1435;49.472;10.940;2023-04-03T04:28:18;5.40;99.90
2855;DHT22;1435;49.472;10.940;2023-04-03T04:33:21;5.50;99.90
2855;DHT22;1435;49.472;10.940;2023-04-03T04:38:23;5.50;99.90
2855;DHT22;1435;49.472;10.940;2023-04-03T04:43:25;5.50;99.90
2855;DHT22;1435;49.472;10.940;2023-04-03T04:48:28;5.60;99.90
2855;DHT22;1435;49.472;10.940;2023-04-03T04:53:29;5.60;99.90
2855;DHT22;1435;49.472;10.940;2023-04-03T04:58:31;5.50;99.90
2855;DHT22;1435;49.472;10.940;2023-04-03T05:03:35;5.50;99.90
2855;DHT22;1435;49.472;10.940;2023-04-03T05:08:36;5.50;99.90
2855;DHT22;1435;49.472;10.940;2023-04-03T05:13:38;5.50;99.90
2855;DHT22;1435;49.472;10.940;2023-04-03T05:18:41;5.50;99.90
2855;DHT22;1435;49.472;10.940;2023-04-03T05:23:43;5.40;99.90
2855;DHT22;1435;49.472;10.940;2023-04-03T05:28:45;5.40;99.90
2855;DHT22;1435;49.472;10.940;2023-04-03T05:33:48;5.40;99.90
2855;DHT22;1435;49.472;10.940;2023-04-03T05:38:50;5.40;99.90
2855;DHT22;1435;49.472;10.940;2023-04-03T05:43:52;5.40;99.90
2855;DHT22;1435;49.472;10.940;2023-04-03T05:48:55;5.50;99.90
2855;DHT22;1435;49.472;10.940;2023-04-03T05:54:01;5.40;99.90
2855;DHT22;1435;49.472;10.940;2023-04-03T05:59:04;5.50;99.90
2855;DHT22;1435;49.472;10.940;2023-04-03T06:04:09;5.50;99.90
2855;DHT22;1435;49.472;10.940;2023-04-03T06:09:10;5.50;99.90
2855;DHT22;1435;49.472;10.940;2023-04-03T06:14:13;5.50;99.90
2855;DHT22;1435;49.472;10.940;2023-04-03T06:19:16;5.50;99.90
2855;DHT22;1435;49.472;10.940;2023-04-03T06:24:18;5.50;99.90
2855;DHT22;1435;49.472;10.940;2023-04-03T06:29:20;5.50;99.90
2855;DHT22;1435;49.472;10.940;2023-04-03T06:34:24;5.50;99.90
2855;DHT22;1435;49.472;10.940;2023-04-03T06:39:26;5.60;99.90
2855;DHT22;1435;49.472;10.940;2023-04-03T06:44:27;5.60;99.90
2855;DHT22;1435;49.472;10.940;2023-04-03T06:49:31;5.60;99.90
2855;DHT22;1435;49.472;10.940;2023-04-03T06:54:33;5.70;99.90
2855;DHT22;1435;49.472;10.940;2023-04-03T06:59:35;5.70;99.90
2855;DHT22;1435;49.472;10.940;2023-04-03T07:04:39;5.80;99.90
2855;DHT22;1435;49.472;10.940;2023-04-03T07:09:41;5.80;99.90
2855;DHT22;1435;49.472;10.940;2023-04-03T07:14:43;5.90;99.90
2855;DHT22;1435;49.472;10.940;2023-04-03T07:19:46;5.90;99.90
2855;DHT22;1435;49.472;10.940;2023-04-03T07:24:48;5.90;99.90
2855;DHT22;1435;49.472;10.940;2023-04-03T07:29:49;5.90;99.90
2855;DHT22;1435;49.472;10.940;2023-04-03T07:34:52;6.00;99.90
2855;DHT22;1435;49.472;10.940;2023-04-03T07:39:54;6.00;99.90
2855;DHT22;1435;49.472;10.940;2023-04-03T07:44:58;6.10;99.90
2855;DHT22;1435;49.472;10.940;2023-04-03T07:50:02;6.10;99.90
2855;DHT22;1435;49.472;10.940;2023-04-03T07:55:04;6.20;99.90
2855;DHT22;1435;49.472;10.940;2023-04-03T08:00:08;6.30;99.90
2855;DHT22;1435;49.472;10.940;2023-04-03T08:05:11;6.30;99.90
2855;DHT22;1435;49.472;10.940;2023-04-03T08:10:14;6.40;99.90
2855;DHT22;1435;49.472;10.940;2023-04-03T08:15:15;6.40;99.90
2855;DHT22;1435;49.472;10.940;2023-04-03T08:20:19;6.50;99.90
2855;DHT22;1435;49.472;10.940;2023-04-03T08:25:21;6.50;99.90
2855;DHT22;1435;49.472;10.940;2023-04-03T08:30:23;6.60;99.90
2855;DHT22;1435;49.472;10.940;2023-04-03T08:35:26;6.60;99.90
2855;DHT22;1435;49.472;10.940;2023-04-03T08:40:29;6.70;99.90
2855;DHT22;1435;49.472;10.940;2023-04-03T08:45:40;6.70;99.90
2855;DHT22;1435;49.472;10.940;2023-04-03T08:50:47;6.70;99.90
2855;DHT22;1435;49.472;10.940;2023-04-03T08:55:50;6.70;99.90
2855;DHT22;1435;49.472;10.940;2023-04-03T09:00:57;6.80;99.90
2855;DHT22;1435;49.472;10.940;2023-04-03T09:06:04;6.90;99.90
2855;DHT22;1435;49.472;10.940;2023-04-03T09:11:15;7.00;99.90
2855;DHT22;1435;49.472;10.940;2023-04-03T09:16:25;7.00;99.90
2855;DHT22;1435;49.472;10.940;2023-04-03T09:21:34;7.10;99.90
2855;DHT22;1435;49.472;10.940;2023-04-03T09:26:41;7.20;99.90
2855;DHT22;1435;49.472;10.940;2023-04-03T09:31:44;7.20;99.90
2855;DHT22;1435;49.472;10.940;2023-04-03T09:36:49;7.30;99.90
2855;DHT22;1435;49.472;10.940;2023-04-03T09:41:58;7.30;99.90
2855;DHT22;1435;49.472;10.940;2023-04-03T09:47:18;7.30;99.90
2855;DHT22;1435;49.472;10.940;2023-04-03T09:52:24;7.30;99.90
2855;DHT22;1435;49.472;10.940;2023-04-03T09:57:32;7.40;99.90
2855;DHT22;1435;49.472;10.940;2023-04-03T10:02:39;7.40;99.90
2855;DHT22;1435;49.472;10.940;2023-04-03T10:07:42;7.40;99.90
2855;DHT22;1435;49.472;10.940;2023-04-03T10:12:44;7.50;99.90
2855;DHT22;1435;49.472;10.940;2023-04-03T10:17:53;7.50;99.90
2855;DHT22;1435;49.472;10.940;2023-04-03T10:23:02;7.60;99.70
2855;DHT22;1435;49.472;10.940;2023-04-03T10:28:08;7.60;99.60
2855;DHT22;1435;49.472;10.940;2023-04-03T10:33:36;7.50;99.50
2855;DHT22;1435;49.472;10.940;2023-04-03T10:38:51;7.60;99.20
2855;DHT22;1435;49.472;10.940;2023-04-03T10:44:04;7.60;99.60
2855;DHT22;1435;49.472;10.940;2023-04-03T10:49:20;7.70;99.00
2855;DHT22;1435;49.472;10.940;2023-04-03T10:54:32;7.70;98.30
2855;DHT22;1435;49.472;10.940;2023-04-03T10:59:37;7.90;98.00
2855;DHT22;1435;49.472;10.940;2023-04-03T11:04:41;7.90;97.60
2855;DHT22;1435;49.472;10.940;2023-04-03T11:09:48;8.00;97.40
2855;DHT22;1435;49.472;10.940;2023-04-03T11:14:51;8.10;96.50
2855;DHT22;1435;49.472;10.940;2023-04-03T11:20:01;8.20;96.50
2855;DHT22;1435;49.472;10.940;2023-04-03T11:25:18;8.20;95.00
2855;DHT22;1435;49.472;10.940;2023-04-03T11:30:25;8.30;94.50
2855;DHT22;1435;49.472;10.940;2023-04-03T11:35:29;8.30;95.20
2855;DHT22;1435;49.472;10.940;2023-04-03T11:40:35;8.30;95.40
2855;DHT22;1435;49.472;10.940;2023-04-03T11:45:50;8.50;94.90
2855;DHT22;1435;49.472;10.940;2023-04-03T11:50:52;8.50;95.00
2855;DHT22;1435;49.472;10.940;2023-04-03T11:55:58;8.50;95.10
2855;DHT22;1435;49.472;10.940;2023-04-03T12:01:03;8.60;94.10
2855;DHT22;1435;49.472;10.940;2023-04-03T12:12:01;8.70;94.20
2855;DHT22;1435;49.472;10.940;2023-04-03T12:17:26;8.80;92.60
2855;DHT22;1435;49.472;10.940;2023-04-03T12:22:29;8.90;93.20
2855;DHT22;1435;49.472;10.940;2023-04-03T12:27:38;9.00;92.10
2855;DHT22;1435;49.472;10.940;2023-04-03T12:32:51;9.10;92.70
2855;DHT22;1435;49.472;10.940;2023-04-03T12:38:20;9.10;92.10
2855;DHT22;1435;49.472;10.940;2023-04-03T12:43:39;9.20;91.40
2855;DHT22;1435;49.472;10.940;2023-04-03T12:48:49;9.30;92.30
2855;DHT22;1435;49.472;10.940;2023-04-03T12:59:13;9.60;91.50
2855;DHT22;1435;49.472;10.940;2023-04-03T13:04:15;9.70;90.40
2855;DHT22;1435;49.472;10.940;2023-04-03T13:09:20;9.70;90.50
2855;DHT22;1435;49.472;10.940;2023-04-03T13:14:27;9.80;90.50
2855;DHT22;1435;49.472;10.940;2023-04-03T13:19:31;9.90;86.70
2855;DHT22;1435;49.472;10.940;2023-04-03T13:24:34;10.00;87.10
2855;DHT22;1435;49.472;10.940;2023-04-03T13:29:38;10.10;86.40
2855;DHT22;1435;49.472;10.940;2023-04-03T13:34:42;10.20;86.30
2855;DHT22;1435;49.472;10.940;2023-04-03T13:39:43;10.30;86.20
2855;DHT22;1435;49.472;10.940;2023-04-03T13:44:46;10.50;86.80
2855;DHT22;1435;49.472;10.940;2023-04-03T13:50:00;10.50;84.80
2855;DHT22;1435;49.472;10.940;2023-04-03T13:55:16;10.70;83.00
2855;DHT22;1435;49.472;10.940;2023-04-03T14:00:30;10.80;81.50
2855;DHT22;1435;49.472;10.940;2023-04-03T14:05:32;10.90;82.60
2855;DHT22;1435;49.472;10.940;2023-04-03T14:10:34;11.00;78.90
2855;DHT22;1435;49.472;10.940;2023-04-03T14:15:37;11.00;79.10
2855;DHT22;1435;49.472;10.940;2023-04-03T14:20:39;11.20;79.80
2855;DHT22;1435;49.472;10.940;2023-04-03T14:25:42;11.30;76.70
2855;DHT22;1435;49.472;10.940;2023-04-03T14:30:46;11.30;76.90
2855;DHT22;1435;49.472;10.940;2023-04-03T14:35:48;11.40;76.70
2855;DHT22;1435;49.472;10.940;2023-04-03T14:40:50;11.50;75.40
2855;DHT22;1435;49.472;10.940;2023-04-03T14:45:54;11.80;74.20
2855;DHT22;1435;49.472;10.940;2023-04-03T14:50:56;11.90;71.80
2855;DHT22;1435;49.472;10.940;2023-04-03T14:55:59;11.90;71.30
2855;DHT22;1435;49.472;10.940;2023-04-03T15:01:02;12.00;74.10
2855;DHT22;1435;49.472;10.940;2023-04-03T15:06:04;12.10;71.30
2855;DHT22;1435;49.472;10.940;2023-04-03T15:11:05;12.10;68.50
2855;DHT22;1435;49.472;10.940;2023-04-03T15:16:15;12.10;68.50
2855;DHT22;1435;49.472;10.940;2023-04-03T15:21:17;12.00;67.60
2855;DHT22;1435;49.472;10.940;2023-04-03T15:26:19;12.00;68.00
2855;DHT22;1435;49.472;10.940;2023-04-03T15:31:23;12.10;66.10
2855;DHT22;1435;49.472;10.940;2023-04-03T15:36:25;12.30;66.50
2855;DHT22;1435;49.472;10.940;2023-04-03T15:41:27;12.40;65.50
2855;DHT22;1435;49.472;10.940;2023-04-03T15:46:30;12.50;65.70
2855;DHT22;1435;49.472;10.940;2023-04-03T15:51:33;12.50;65.00
2855;DHT22;1435;49.472;10.940;2023-04-03T15:56:35;12.60;65.00
2855;DHT22;1435;49.472;10.940;2023-04-03T16:01:38;12.60;63.00
2855;DHT22;1435;49.472;10.940;2023-04-03T16:06:41;12.80;62.50
2855;DHT22;1435;49.472;10.940;2023-04-03T16:11:43;12.80;62.20
2855;DHT22;1435;49.472;10.940;2023-04-03T16:16:46;12.90;61.30
2855;DHT22;1435;49.472;10.940;2023-04-03T16:21:47;12.80;59.30
2855;DHT22;1435;49.472;10.940;2023-04-03T16:26:50;12.80;59.00
2855;DHT22;1435;49.472;10.940;2023-04-03T16:31:55;12.80;59.60
2855;DHT22;1435;49.472;10.940;2023-04-03T16:36:57;12.80;58.90
2855;DHT22;1435;49.472;10.940;2023-04-03T16:42:00;12.70;59.40
2855;DHT22;1435;49.472;10.940;2023-04-03T16:47:03;12.60;59.30
2855;DHT22;1435;49.472;10.940;2023-04-03T16:52:05;12.40;58.60
2855;DHT22;1435;49.472;10.940;2023-04-03T16:57:07;12.20;58.20
2855;DHT22;1435;49.472;10.940;2023-04-03T17:02:10;12.00;58.60
2855;DHT22;1435;49.472;10.940;2023-04-03T17:07:12;11.90;58.80
2855;DHT22;1435;49.472;10.940;2023-04-03T17:12:14;11.80;58.90
2855;DHT22;1435;49.472;10.940;2023-04-03T17:17:19;11.70;58.70
2855;DHT22;1435;49.472;10.940;2023-04-03T17:22:22;11.50;59.20
2855;DHT22;1435;49.472;10.940;2023-04-03T17:27:27;11.30;58.90
2855;DHT22;1435;49.472;10.940;2023-04-03T17:32:30;11.10;59.40
2855;DHT22;1435;49.472;10.940;2023-04-03T17:37:32;10.90;59.20
2855;DHT22;1435;49.472;10.940;2023-04-03T17:42:34;10.70;59.70
2855;DHT22;1435;49.472;10.940;2023-04-03T17:47:37;10.40;59.40
2855;DHT22;1435;49.472;10.940;2023-04-03T17:52:39;10.20;59.70
2855;DHT22;1435;49.472;10.940;2023-04-03T17:57:40;10.10;59.60
2855;DHT22;1435;49.472;10.940;2023-04-03T18:02:43;9.80;61.30
2855;DHT22;1435;49.472;10.940;2023-04-03T18:07:46;9.60;61.60
2855;DHT22;1435;49.472;10.940;2023-04-03T18:12:48;9.50;61.10
2855;DHT22;1435;49.472;10.940;2023-04-03T18:17:51;9.30;61.60
2855;DHT22;1435;49.472;10.940;2023-04-03T18:22:56;9.20;61.80
2855;DHT22;1435;49.472;10.940;2023-04-03T18:27:57;9.10;62.20
2855;DHT22;1435;49.472;10.940;2023-04-03T18:33:03;8.90;62.90
2855;DHT22;1435;49.472;10.940;2023-04-03T18:38:05;8.80;63.30
2855;DHT22;1435;49.472;10.940;2023-04-03T18:43:07;8.60;63.80
2855;DHT22;1435;49.472;10.940;2023-04-03T18:48:10;8.50;64.20
2855;DHT22;1435;49.472;10.940;2023-04-03T18:53:12;8.40;64.50
2855;DHT22;1435;49.472;10.940;2023-04-03T18:58:14;8.20;64.60
2855;DHT22;1435;49.472;10.940;2023-04-03T19:03:17;8.10;64.70
2855;DHT22;1435;49.472;10.940;2023-04-03T19:08:19;7.90;64.80
2855;DHT22;1435;49.472;10.940;2023-04-03T19:13:21;7.90;65.00
2855;DHT22;1435;49.472;10.940;2023-04-03T19:18:24;7.70;65.30
2855;DHT22;1435;49.472;10.940;2023-04-03T19:23:26;7.60;65.90
2855;DHT22;1435;49.472;10.940;2023-04-03T19:28:28;7.50;66.50
2855;DHT22;1435;49.472;10.940;2023-04-03T19:33:31;7.40;66.70
2855;DHT22;1435;49.472;10.940;2023-04-03T19:38:35;7.20;67.20
2855;DHT22;1435;49.472;10.940;2023-04-03T19:43:37;7.20;67.20
2855;DHT22;1435;49.472;10.940;2023-04-03T19:48:42;7.10;68.00
2855;DHT22;1435;49.472;10.940;2023-04-03T19:53:44;7.00;67.50
2855;DHT22;1435;49.472;10.940;2023-04-03T19:58:46;6.90;67.60
2855;DHT22;1435;49.472;10.940;2023-04-03T20:03:54;6.80;67.70
2855;DHT22;1435;49.472;10.940;2023-04-03T20:08:56;6.70;67.90
2855;DHT22;1435;49.472;10.940;2023-04-03T20:14:01;6.60;68.30
2855;DHT22;1435;49.472;10.940;2023-04-03T20:19:04;6.50;68.50
2855;DHT22;1435;49.472;10.940;2023-04-03T20:24:07;6.40;68.90
2855;DHT22;1435;49.472;10.940;2023-04-03T20:29:09;6.30;69.10
2855;DHT22;1435;49.472;10.940;2023-04-03T20:34:13;6.30;69.80
2855;DHT22;1435;49.472;10.940;2023-04-03T20:39:15;6.10;70.30
2855;DHT22;1435;49.472;10.940;2023-04-03T20:44:18;6.00;71.00
2855;DHT22;1435;49.472;10.940;2023-04-03T20:49:23;5.90;72.00
2855;DHT22;1435;49.472;10.940;2023-04-03T20:54:25;5.70;72.90
2855;DHT22;1435;49.472;10.940;2023-04-03T20:59:27;5.60;73.90
2855;DHT22;1435;49.472;10.940;2023-04-03T21:04:37;5.40;74.00
2855;DHT22;1435;49.472;10.940;2023-04-03T21:20:51;4.90;75.60
2855;DHT22;1435;49.472;10.940;2023-04-03T21:25:53;4.80;76.10
2855;DHT22;1435;49.472;10.940;2023-04-03T21:30:55;4.70;76.50
2855;DHT22;1435;49.472;10.940;2023-04-03T21:35:58;4.70;76.40
2855;DHT22;1435;49.472;10.940;2023-04-03T21:41:01;4.60;76.90
2855;DHT22;1435;49.472;10.940;2023-04-03T21:46:03;4.50;77.20
2855;DHT22;1435;49.472;10.940;2023-04-03T21:51:07;4.40;77.70
2855;DHT22;1435;49.472;10.940;2023-04-03T21:56:10;4.30;77.60
2855;DHT22;1435;49.472;10.940;2023-04-03T22:01:13;4.30;78.50
2855;DHT22;1435;49.472;10.940;2023-04-03T22:06:16;4.20;79.30
2855;DHT22;1435;49.472;10.940;2023-04-03T22:11:18;4.10;79.50
2855;DHT22;1435;49.472;10.940;2023-04-03T22:16:22;4.00;79.80
2855;DHT22;1435;49.472;10.940;2023-04-03T22:21:25;3.90;80.00
2855;DHT22;1435;49.472;10.940;2023-04-03T22:26:27;3.90;80.60
2855;DHT22;1435;49.472;10.940;2023-04-03T22:31:29;3.80;80.70
2855;DHT22;1435;49.472;10.940;2023-04-03T22:36:32;3.60;81.70
2855;DHT22;1435;49.472;10.940;2023-04-03T22:41:34;3.50;82.30
2855;DHT22;1435;49.472;10.940;2023-04-03T22:46:36;3.40;83.20
2855;DHT22;1435;49.472;10.940;2023-04-03T22:51:39;3.30;83.90
2855;DHT22;1435;49.472;10.940;2023-04-03T22:56:40;3.30;84.50
2855;DHT22;1435;49.472;10.940;2023-04-03T23:01:42;3.30;84.90
2855;DHT22;1435;49.472;10.940;2023-04-03T23:06:45;3.20;84.80
2855;DHT22;1435;49.472;10.940;2023-04-03T23:11:47;3.20;84.80
2855;DHT22;1435;49.472;10.940;2023-04-03T23:16:48;3.20;84.90
2855;DHT22;1435;49.472;10.940;2023-04-03T23:21:52;3.20;84.50
2855;DHT22;1435;49.472;10.940;2023-04-03T23:26:53;3.10;84.80
2855;DHT22;1435;49.472;10.940;2023-04-03T23:31:56;3.00;85.00
2855;DHT22;1435;49.472;10.940;2023-04-03T23:36:59;2.80;85.90
2855;DHT22;1435;49.472;10.940;2023-04-03T23:42:01;2.80;86.00
2855;DHT22;1435;49.472;10.940;2023-04-03T23:47:02;2.70;86.70
2855;DHT22;1435;49.472;10.940;2023-04-03T23:52:06;2.60;86.80
2855;DHT22;1435;49.472;10.940;2023-04-03T23:57:07;2.60;87.20
